Time;durP1;ratioP1;P1;durP2;ratioP2;P2;SDS_P1;SDS_P2;PMS_P1;PMS_P2;Temp;Humidity;BMP_temperature;BMP_pressure;BME280_temperature;BME280_humidity;BME280_pressure;Samples;Min_cycle;Max_cycle;Signal;HPM_P1;HPM_P2
2023/01/16 00:02:12;;;;;;;26.10;11.60;;;;;;;-0.99;100.00;99694.71;108986;1260;61900;-71
2023/01/16 00:04:39;;;;;;;23.70;14.30;;;;;;;-0.96;100.00;99693.18;108965;1260;58253;-71
2023/01/16 00:08:49;;;;;;;22.50;9.30;;;;;;;-0.91;100.00;99693.63;102954;1288;600999;-73
2023/01/16 00:11:16;;;;;;;16.90;11.60;;;;;;;-0.98;100.00;99692.84;104803;1273;63021;-74
2023/01/16 00:13:43;;;;;;;28.80;12.60;;;;;;;-0.99;100.00;99685.95;105413;1266;59484;-73
2023/01/16 00:16:10;;;;;;;16.80;12.20;;;;;;;-0.99;100.00;99679.93;105582;1262;73881;-79
2023/01/16 00:18:37;;;;;;;19.00;11.80;;;;;;;-0.98;100.00;99672.52;105461;1262;69177;-74
2023/01/16 00:21:04;;;;;;;16.60;12.40;;;;;;;-1.02;100.00;99670.06;105233;1262;75047;-76
2023/01/16 00:23:32;;;;;;;12.80;10.00;;;;;;;-1.03;100.00;99669.31;105083;1260;591194;-73
2023/01/16 00:25:59;;;;;;;19.40;13.50;;;;;;;-1.06;100.00;99662.08;105479;1265;61140;-76
2023/01/16 00:28:26;;;;;;;17.50;11.40;;;;;;;-1.05;100.00;99654.40;105417;1262;74864;-75
2023/01/16 00:30:53;;;;;;;14.00;11.40;;;;;;;-1.04;100.00;99650.61;105413;1262;68722;-79
2023/01/16 00:33:20;;;;;;;21.10;12.40;;;;;;;-1.06;100.00;99651.59;105623;1261;72222;-82
2023/01/16 00:35:47;;;;;;;28.70;15.40;;;;;;;-1.08;100.00;99650.05;105553;1260;60365;-82
2023/01/16 00:38:14;;;;;;;19.70;12.40;;;;;;;-1.09;100.00;99649.76;105591;1260;61312;-84
2023/01/16 00:40:42;;;;;;;23.60;15.40;;;;;;;-1.08;100.00;99649.48;105378;1262;76220;-83
2023/01/16 00:43:09;;;;;;;20.20;11.70;;;;;;;-1.06;100.00;99647.83;105621;1260;68158;-74
2023/01/16 00:45:35;;;;;;;22.20;13.20;;;;;;;-1.03;100.00;99642.09;105524;1261;72962;-72
2023/01/16 00:48:03;;;;;;;15.10;11.30;;;;;;;-1.00;100.00;99643.64;105668;1260;62933;-79
2023/01/16 00:50:32;;;;;;;23.10;13.60;;;;;;;-0.98;100.00;99643.45;105811;1259;60626;-80
2023/01/16 00:52:59;;;;;;;26.60;14.90;;;;;;;-0.93;100.00;99644.52;105772;1259;75662;-80
2023/01/16 00:55:25;;;;;;;18.50;9.10;;;;;;;-0.86;100.00;99641.93;105784;1259;67309;-79
2023/01/16 00:57:52;;;;;;;15.10;10.90;;;;;;;-0.85;100.00;99641.91;105451;1259;73731;-80
2023/01/16 01:00:21;;;;;;;13.90;10.30;;;;;;;-0.86;100.00;99641.30;105428;1259;63711;-80
2023/01/16 01:02:49;;;;;;;10.40;7.70;;;;;;;-0.85;100.00;99638.58;105484;1259;62960;-78
2023/01/16 01:05:16;;;;;;;15.40;10.70;;;;;;;-0.88;100.00;99630.14;105583;1263;75814;-78
2023/01/16 01:07:43;;;;;;;16.80;11.00;;;;;;;-0.87;100.00;99625.45;104713;1261;1002631;-77
2023/01/16 01:10:09;;;;;;;14.50;9.90;;;;;;;-0.86;100.00;99619.08;105168;1267;73136;-76
2023/01/16 01:12:36;;;;;;;16.60;10.30;;;;;;;-0.89;100.00;99610.67;105277;1260;61378;-76
2023/01/16 01:15:04;;;;;;;13.40;9.10;;;;;;;-0.87;100.00;99607.69;105400;1260;62497;-77
2023/01/16 01:17:31;;;;;;;17.50;10.90;;;;;;;-0.84;100.00;99608.78;105440;1261;72494;-78
2023/01/16 01:19:58;;;;;;;13.80;9.60;;;;;;;-0.85;100.00;99597.07;105534;1260;70698;-79
2023/01/16 01:22:26;;;;;;;16.10;10.00;;;;;;;-0.86;100.00;99591.87;105219;1262;75392;-73
2023/01/16 01:24:53;;;;;;;16.60;11.80;;;;;;;-0.87;100.00;99586.16;105303;1266;63947;-75
2023/01/16 01:27:20;;;;;;;13.70;9.80;;;;;;;-0.86;100.00;99577.48;105351;1262;60266;-73
2023/01/16 01:29:47;;;;;;;16.10;10.80;;;;;;;-0.87;100.00;99570.86;105269;1260;72938;-77
2023/01/16 01:32:14;;;;;;;19.10;11.40;;;;;;;-0.86;100.00;99569.77;105206;1267;68971;-74
2023/01/16 01:34:41;;;;;;;16.80;10.60;;;;;;;-0.85;100.00;99563.94;105316;1265;71753;-78
2023/01/16 01:37:08;;;;;;;14.70;10.50;;;;;;;-0.85;100.00;99559.05;105240;1261;62592;-73
2023/01/16 01:39:35;;;;;;;12.00;10.20;;;;;;;-0.88;100.00;99555.30;105385;1260;62806;-73
2023/01/16 01:45:00;;;;;;;18.90;12.10;;;;;;;-0.90;100.00;99542.90;105344;1264;69911;-75
2023/01/16 01:47:33;;;;;;;13.30;7.90;;;;;;;-0.89;100.00;99549.59;105667;1267;74024;-74
2023/01/16 01:50:02;;;;;;;19.60;11.80;;;;;;;-0.89;100.00;99549.39;105367;1264;62483;-74
2023/01/16 01:52:29;;;;;;;24.20;12.50;;;;;;;-0.86;100.00;99556.90;105427;1262;63178;-74
2023/01/16 01:54:58;;;;;;;21.10;13.90;;;;;;;-0.85;100.00;99559.39;105326;1260;75587;-73
2023/01/16 01:57:32;;;;;;;17.60;12.20;;;;;;;-0.84;100.00;99563.50;105188;1262;69856;-73
2023/01/16 02:00:23;;;;;;;10.70;7.90;;;;;;;-0.79;100.00;99559.77;105423;1260;73357;-72
2023/01/16 02:02:58;;;;;;;12.20;10.00;;;;;;;-0.81;100.00;99560.27;105405;1262;63930;-76
2023/01/16 08:37:14;;;;;;;32.30;20.50;;;;;;;0.33;100.00;99397.33;102980;1289;601201;-71
2023/01/16 08:39:42;;;;;;;32.30;22.80;;;;;;;0.33;100.00;99396.23;104940;1272;60408;-70
2023/01/16 08:53:13;;;;;;;20.10;15.40;;;;;;;0.60;100.00;99393.09;105502;1260;62485;-74
2023/01/16 08:55:39;;;;;;;18.30;15.00;;;;;;;0.65;100.00;99390.65;105414;1267;59257;-72
2023/01/16 08:58:06;;;;;;;18.70;14.60;;;;;;;0.68;100.00;99386.92;105491;1264;74678;-73
2023/01/16 09:00:34;;;;;;;17.10;12.90;;;;;;;0.70;100.00;99385.95;105033;1262;66924;-71
2023/01/16 09:03:01;;;;;;;15.30;12.00;;;;;;;0.73;100.00;99382.16;105248;1266;72095;-73
2023/01/16 09:05:28;;;;;;;14.40;11.60;;;;;;;0.80;100.00;99376.91;105279;1265;62684;-71
2023/01/16 09:07:55;;;;;;;19.50;13.20;;;;;;;0.81;100.00;99382.25;105455;1259;63265;-71
2023/01/16 09:10:23;;;;;;;14.10;10.80;;;;;;;0.81;100.00;99376.35;105062;1260;75795;-70
2023/01/16 09:15:35;;;;;;;21.80;12.20;;;;;;;0.92;100.00;99373.46;105302;1259;75300;-72
2023/01/16 09:18:02;;;;;;;14.60;10.80;;;;;;;0.96;100.00;99375.65;105410;1260;64284;-71
2023/01/16 09:20:29;;;;;;;15.80;12.00;;;;;;;0.97;100.00;99372.10;105717;1256;60243;-70
2023/01/16 09:22:58;;;;;;;17.10;12.10;;;;;;;0.96;100.00;99371.58;105181;1261;73742;-70
2023/01/16 09:25:25;;;;;;;14.90;11.20;;;;;;;0.95;100.00;99374.71;105831;1259;70403;-70
2023/01/16 09:27:52;;;;;;;11.50;10.20;;;;;;;0.95;100.00;99371.82;105316;1257;73005;-70
2023/01/16 09:30:19;;;;;;;18.40;14.30;;;;;;;1.00;100.00;99364.95;105356;1260;60683;-72
2023/01/16 09:32:46;;;;;;;14.40;11.60;;;;;;;1.03;100.00;99364.31;105675;1261;62449;-72
2023/01/16 09:35:15;;;;;;;14.50;12.00;;;;;;;1.05;100.00;99365.19;105342;1257;73020;-72
2023/01/16 09:37:44;;;;;;;17.00;13.80;;;;;;;1.10;100.00;99361.79;105639;1257;68603;-71
2023/01/16 09:40:16;;;;;;;17.90;12.70;;;;;;;1.11;100.00;99355.92;105235;1256;75274;-73
2023/01/16 09:45:53;;;;;;;19.80;14.50;;;;;;;1.05;100.00;99348.23;106664;1262;61534;-73
2023/01/16 09:48:25;;;;;;;17.50;12.20;;;;;;;1.05;100.00;99341.94;107219;1256;73733;-71
2023/01/16 09:50:53;;;;;;;17.20;12.90;;;;;;;1.06;100.00;99341.23;107050;1257;68668;-73
2023/01/16 09:59:16;;;;;;;18.00;12.70;;;;;;;1.15;100.00;99327.11;106350;1256;63120;-77
2023/01/16 10:01:45;;;;;;;13.40;10.60;;;;;;;1.16;100.00;99320.86;106130;1259;74495;-76
2023/01/16 10:04:22;;;;;;;13.30;11.10;;;;;;;1.17;100.00;99320.01;105906;1256;68775;-77
2023/01/16 10:06:59;;;;;;;14.40;10.80;;;;;;;1.23;100.00;99312.74;105761;1261;73836;-74
2023/01/16 16:33:24;;;;;;;47.20;31.90;;;;;;;1.29;100.00;99136.71;102317;1295;600632;-73
2023/01/16 16:35:53;;;;;;;43.70;28.90;;;;;;;1.29;100.00;99133.42;105246;1264;62916;-72
2023/01/16 16:38:22;;;;;;;41.20;32.70;;;;;;;1.33;100.00;99122.65;105631;1260;63210;-72
2023/01/16 16:41:06;;;;;;;36.80;26.40;;;;;;;1.36;100.00;99121.88;105106;1258;73003;-72
2023/01/16 16:43:52;;;;;;;32.60;26.40;;;;;;;1.41;100.00;99119.43;105471;1265;68961;-78
2023/01/16 16:46:28;;;;;;;37.90;25.90;;;;;;;1.48;100.00;99122.04;105375;1257;639850;-88
2023/01/16 16:49:25;;;;;;;29.70;22.90;;;;;;;1.56;100.00;99121.70;106242;1257;63022;-75
2023/01/16 16:51:52;;;;;;;37.00;27.80;;;;;;;1.63;100.00;99120.03;105569;1265;59459;-76
2023/01/16 16:54:19;;;;;;;26.70;21.70;;;;;;;1.66;100.00;99120.66;105641;1262;73046;-74
2023/01/16 16:56:48;;;;;;;28.10;20.90;;;;;;;1.70;100.00;99119.84;105540;1264;67431;-73
2023/01/16 16:59:26;;;;;;;25.20;20.10;;;;;;;1.76;100.00;99125.25;105692;1257;74241;-76
2023/01/16 17:01:56;;;;;;;24.40;20.00;;;;;;;1.78;100.00;99124.96;105531;1259;62321;-74
2023/01/16 17:04:23;;;;;;;26.30;21.00;;;;;;;1.83;100.00;99126.30;105729;1257;61620;-74
2023/01/16 17:06:53;;;;;;;27.70;18.10;;;;;;;1.87;100.00;99121.52;105461;1263;72726;-74
2023/01/16 17:09:20;;;;;;;23.90;16.60;;;;;;;1.92;100.00;99111.96;105455;1257;68457;-75
2023/01/16 17:11:47;;;;;;;23.90;18.30;;;;;;;1.96;100.00;99111.10;105296;1260;72092;-70
2023/01/16 17:14:13;;;;;;;24.10;18.10;;;;;;;2.00;100.00;99113.86;105334;1257;60081;-69
2023/01/16 17:16:41;;;;;;;23.50;17.60;;;;;;;2.06;100.00;99108.82;105388;1258;60814;-71
2023/01/16 17:19:24;;;;;;;24.20;19.10;;;;;;;2.06;100.00;99100.77;105347;1257;72380;-73
2023/01/16 17:21:51;;;;;;;25.60;18.70;;;;;;;2.10;100.00;99101.29;105624;1262;66358;-74
2023/01/16 17:24:21;;;;;;;24.00;18.80;;;;;;;2.13;100.00;99097.66;105302;1257;72811;-72
2023/01/16 17:26:48;;;;;;;22.80;16.70;;;;;;;2.20;100.00;99095.59;105433;1257;63638;-74
2023/01/16 17:29:15;;;;;;;19.80;16.10;;;;;;;2.26;100.00;99100.83;105340;1258;59882;-73
2023/01/16 17:31:42;;;;;;;20.10;15.70;;;;;;;2.25;100.00;99099.98;105324;1259;72610;-73
2023/01/16 17:34:29;;;;;;;22.60;17.80;;;;;;;2.25;100.00;99096.99;105149;1263;70285;-76
2023/01/16 17:36:56;;;;;;;22.80;18.30;;;;;;;2.19;100.00;99088.77;105087;1263;71484;-70
2023/01/16 17:39:23;;;;;;;21.30;17.60;;;;;;;2.15;100.00;99086.59;104974;1263;62017;-73
2023/01/16 17:47:05;;;;;;;24.60;19.20;;;;;;;2.18;100.00;99086.41;104932;1266;68851;-73
2023/01/16 17:50:20;;;;;;;24.50;17.60;;;;;;;2.21;100.00;99082.15;104982;1263;75248;-72
2023/01/16 17:52:19;;;;;;;22.20;17.70;;;;;;;2.24;100.00;99084.63;104698;1268;62765;-73
2023/01/16 17:57:32;;;;;;;24.00;18.50;;;;;;;2.33;100.00;99074.27;104727;1266;73711;-73
2023/01/16 17:59:59;;;;;;;25.40;19.30;;;;;;;2.40;100.00;99075.21;105340;1265;68310;-72
2023/01/16 18:02:26;;;;;;;27.40;21.40;;;;;;;2.40;100.00;99074.03;105081;1264;71818;-71
2023/01/16 22:22:49;;;;;;;26.50;17.80;;;;;;;2.82;100.00;98915.92;106636;1257;69128;-72
2023/01/16 22:25:25;;;;;;;24.80;17.60;;;;;;;2.89;100.00;98920.35;106322;1254;525102;-72
2023/01/16 22:27:53;;;;;;;21.40;16.50;;;;;;;2.94;100.00;98912.95;106972;1259;60107;-74
2023/01/16 22:30:20;;;;;;;27.30;17.20;;;;;;;3.00;100.00;98911.87;106603;1254;59943;-70
2023/01/16 22:32:46;;;;;;;20.90;15.10;;;;;;;3.04;100.00;98908.34;106362;1259;74696;-71
2023/01/16 22:35:14;;;;;;;19.50;13.70;;;;;;;3.09;100.00;98905.76;106343;1254;67456;-71
2023/01/16 22:37:42;;;;;;;19.80;15.00;;;;;;;3.15;100.00;98898.34;105944;1259;72108;-71
2023/01/16 22:40:10;;;;;;;19.00;14.80;;;;;;;3.17;100.00;98902.61;105973;1259;60494;-71
2023/01/16 22:42:37;;;;;;;16.30;13.70;;;;;;;3.20;100.00;98898.13;105850;1259;60079;-73
2023/01/16 22:47:53;;;;;;;14.00;12.20;;;;;;;3.28;100.00;98896.31;105772;1254;69908;-72
2023/01/16 22:50:20;;;;;;;18.70;14.20;;;;;;;3.32;100.00;98891.11;105679;1259;74242;-72
2023/01/16 22:52:47;;;;;;;19.30;13.60;;;;;;;3.33;100.00;98886.61;106084;1260;63431;-72
2023/01/16 22:55:14;;;;;;;14.80;11.60;;;;;;;3.35;100.00;98885.84;105938;1258;60804;-70
2023/01/16 22:57:42;;;;;;;16.30;12.10;;;;;;;3.40;100.00;98882.64;105888;1254;74362;-72
2023/01/16 23:00:11;;;;;;;20.20;14.50;;;;;;;3.42;100.00;98883.39;106289;1254;67183;-75
2023/01/16 23:02:39;;;;;;;25.10;16.10;;;;;;;3.38;100.00;98873.17;106775;1257;72423;-76
2023/01/16 23:05:07;;;;;;;17.50;13.70;;;;;;;3.37;100.00;98871.17;105799;1257;62153;-74
2023/01/16 23:07:34;;;;;;;18.30;13.90;;;;;;;3.37;100.00;98872.45;106906;1254;62986;-75
2023/01/16 23:10:01;;;;;;;18.90;13.40;;;;;;;3.38;100.00;98876.00;105940;1259;73295;-72
2023/01/16 23:12:29;;;;;;;16.40;12.50;;;;;;;3.41;100.00;98869.59;105624;1260;68726;-70
2023/01/16 23:14:56;;;;;;;23.40;13.90;;;;;;;3.45;100.00;98872.95;105870;1256;75673;-71
2023/01/16 23:17:25;;;;;;;19.40;12.90;;;;;;;3.50;100.00;98869.48;105827;1257;62697;-72
2023/01/16 23:19:52;;;;;;;15.10;11.40;;;;;;;3.56;100.00;98870.36;105692;1259;61750;-80
2023/01/16 23:22:19;;;;;;;16.50;12.90;;;;;;;3.58;100.00;98864.42;105453;1259;74030;-77
2023/01/16 23:24:46;;;;;;;14.40;12.00;;;;;;;3.56;100.00;98862.27;105553;1257;69170;-80
2023/01/16 23:35:16;;;;;;;20.80;13.80;;;;;;;3.52;100.00;98852.63;102442;1294;600173;-77
2023/01/16 23:37:43;;;;;;;21.40;13.70;;;;;;;3.52;100.00;98852.34;104998;1272;61507;-70
2023/01/16 23:40:11;;;;;;;15.80;13.30;;;;;;;3.53;100.00;98846.89;104506;1267;61252;-71
2023/01/16 23:45:23;;;;;;;15.50;11.70;;;;;;;3.53;100.00;98842.52;104799;1274;68736;-75
2023/01/16 23:47:50;;;;;;;17.50;12.40;;;;;;;3.55;100.00;98848.06;104377;1269;653120;-77
2023/01/16 23:50:17;;;;;;;19.80;13.60;;;;;;;3.53;100.00;98845.59;105284;1266;61302;-72
2023/01/16 23:52:44;;;;;;;18.60;12.50;;;;;;;3.53;100.00;98839.83;105704;1264;61742;-75
2023/01/16 23:55:12;;;;;;;18.50;12.50;;;;;;;3.57;100.00;98838.54;105512;1260;71404;-72
